Cross River, NY (10518)

11:17 PM EDT on March 29, 2015 (GMT -0400)
Waccabuc | | Change Station
CLOSE
Current Station
Personal Weather Station
Location: Waccabuc, NY
Elevation: 618 ft
Nearby Weather Stations

Elev 618 ft 41.29 °N, 73.60 °W | Updated 24 seconds ago

Clear
Clear
30.1 °F
Feels Like 30 °F
N
0.0
Wind Variable Wind from South
Gusts 0.0 mph

Today
High -- | Low -- °F
--% Chance of Precip.
Yesterday
High -- | Low -- °F
Precip. -- in
6:43 AM 7:16 PM
Waxing Gibbous, 76% visible
Pressure 30.13 in
Visibility 10.0 miles
Clouds Clear
Windchill 30 °F
Dew Point 20 °F
Humidity 66%
Rainfall 0.00 in
Snow Depth Not available.
UV 0 out of 12
Pollen 4.80 out of 12
Air Quality Not available.
Flu Activity Not available.
METAR KDXR 300253Z AUTO VRB03KT 10SM CLR 01/M10 A3012 RMK AO2 SLP203 T00061100 55006 PWINO FZRANO

More Conditions Fewer Conditions

Pressure 30.13 in
Visibility 10.0 miles
Clouds Clear
Windchill 30 °F
Dew Point 20 °F
Humidity 66%
Rainfall 0.00 in
Snow Depth Not available.
UV 0 out of 12
Pollen 4.80 out of 12
Air Quality Not available.
Flu Activity Not available.
METAR KDXR 300253Z AUTO VRB03KT 10SM CLR 01/M10 A3012 RMK AO2 SLP203 T00061100 55006 PWINO FZRANO

More Conditions Fewer Conditions

10-Day Weather Forecast

Almanac

Astronomy

Mar. 29, 2015 Rise Set
Actual Time
Civil Twilight
Nautical Twilight
Astronomical Twilight
Moon
Length of Visible Light
Length of Day
Tomorrow will be .
, % of the Moon is Illuminated

Today's Extremes

State Highs State Lows

Community

WunderPhotos

Upload Photos

1,809,420 photos uploaded!

WunderBlogs® & News

Nearby

Air Quality

  Air Quality AQ Index Pollutant
Not available.

Snow Depth

Station Depth Elevation

Earthquake Activity

City Distance Mag. Time & Date
Minimum magnitude displayed is 2.5.

Coastal Water Temperatures

Place Temperature

Stations

Nearby Weather Stations

Station Location Temp. Windchill Dew Point Humidity Wind Precip. Elev Updated Type